createdAt,value
2022-10-02T00:00:16.914Z,97527.63
2022-10-02T00:03:23.904Z,97527.13
2022-10-02T00:06:11.800Z,97539.13
2022-10-02T00:08:43.706Z,97549.09
2022-10-02T00:11:27.510Z,97549.91
2022-10-02T00:14:02.305Z,97553.72
2022-10-02T00:16:40.339Z,97561.91
2022-10-02T00:19:12.319Z,97561.44
2022-10-02T00:22:13.968Z,97558.59
2022-10-02T00:25:12.449Z,97568.47
2022-10-02T00:28:28.529Z,97568.25
2022-10-02T00:31:44.922Z,97576.25
2022-10-02T00:35:03.233Z,97562.06
2022-10-02T00:37:50.892Z,97571.00
2022-10-02T00:41:22.220Z,97576.38
2022-10-02T00:44:22.769Z,97582.91
2022-10-02T00:47:43.663Z,97590.16
2022-10-02T00:50:22.248Z,97590.16
2022-10-02T00:53:19.623Z,97589.31
2022-10-02T00:55:57.505Z,97590.00
2022-10-02T00:59:13.605Z,97591.44
2022-10-02T01:02:07.279Z,97595.16
2022-10-02T01:04:38.946Z,97590.09
2022-10-02T01:07:11.291Z,97600.00
2022-10-02T01:09:40.334Z,97605.47
2022-10-02T01:12:08.429Z,97606.06
2022-10-02T01:14:39.220Z,97612.81
2022-10-02T01:17:33.250Z,97619.25
2022-10-02T01:20:07.805Z,97609.38
2022-10-02T01:22:49.207Z,97627.56
2022-10-02T01:25:16.724Z,97621.13
2022-10-02T01:27:44.315Z,97623.06
2022-10-02T01:30:17.461Z,97627.56
2022-10-02T01:32:58.082Z,97627.81
2022-10-02T01:35:35.800Z,97631.59
2022-10-02T01:38:13.572Z,97638.22
2022-10-02T01:40:42.183Z,97638.94
2022-10-02T01:43:19.711Z,97642.53
2022-10-02T01:46:21.706Z,97635.75
2022-10-02T01:49:34.877Z,97638.47
2022-10-02T01:52:26.254Z,97653.69
2022-10-02T01:56:01.270Z,97653.00
2022-10-02T01:58:55.921Z,97657.38
2022-10-02T02:01:25.923Z,97656.31
2022-10-02T02:04:27.073Z,97670.59
2022-10-02T02:07:26.318Z,97660.72
2022-10-02T02:10:06.788Z,97667.09
2022-10-02T02:12:47.657Z,97671.63
2022-10-02T02:15:33.572Z,97672.72
2022-10-02T02:18:24.465Z,97672.50
2022-10-02T02:20:56.191Z,97673.31
2022-10-02T02:23:31.552Z,97679.53
2022-10-02T02:26:08.555Z,97678.44
2022-10-02T02:28:38.278Z,97678.44
2022-10-02T02:31:10.101Z,97669.75
2022-10-02T02:33:50.603Z,97686.53
2022-10-02T02:36:24.295Z,97696.75
2022-10-02T02:39:00.747Z,97688.19
2022-10-02T02:41:37.425Z,97694.13
2022-10-02T02:44:30.172Z,97694.00
2022-10-02T02:47:22.599Z,97691.38
2022-10-02T02:50:12.337Z,97693.78
2022-10-02T02:52:53.465Z,97690.56
2022-10-02T02:55:29.160Z,97702.31
2022-10-02T02:58:03.671Z,97698.41
2022-10-02T03:00:32.333Z,97707.31
2022-10-02T03:02:59.584Z,97696.84
2022-10-02T03:05:29.654Z,97706.94
2022-10-02T03:08:07.865Z,97707.91
2022-10-02T03:11:25.211Z,97706.94
2022-10-02T03:14:21.371Z,97715.75
2022-10-02T03:17:16.109Z,97725.41
2022-10-02T03:20:17.653Z,97714.78
2022-10-02T03:23:12.423Z,97720.03
2022-10-02T03:26:04.169Z,97725.97
2022-10-02T03:28:55.615Z,97719.66
2022-10-02T03:31:29.789Z,97730.00
2022-10-02T03:34:00.576Z,97732.38
2022-10-02T03:36:28.732Z,97730.59
2022-10-02T03:39:23.687Z,97732.13
2022-10-02T03:41:48.808Z,97734.03
2022-10-02T03:44:16.020Z,97736.16
2022-10-02T03:46:43.358Z,97732.38
2022-10-02T03:49:10.959Z,97735.34
2022-10-02T03:51:38.123Z,97744.72
2022-10-02T03:54:18.135Z,97741.97
2022-10-02T03:56:55.304Z,97757.41
2022-10-02T03:59:43.199Z,97749.56
2022-10-02T04:02:43.261Z,97761.00
2022-10-02T04:05:13.951Z,97754.78
2022-10-02T04:07:51.733Z,97765.63
2022-10-02T04:10:52.984Z,97769.44
2022-10-02T04:13:56.027Z,97775.38
2022-10-02T04:16:41.258Z,97769.31
2022-10-02T04:19:40.416Z,97792.75
2022-10-02T04:22:35.132Z,97782.28
2022-10-02T04:25:22.193Z,97784.34
2022-10-02T04:28:05.752Z,97785.28
2022-10-02T04:30:33.334Z,97798.25
2022-10-02T04:33:17.809Z,97792.41
2022-10-02T04:36:30.015Z,97802.88
2022-10-02T04:39:10.506Z,97807.06
2022-10-02T04:41:49.565Z,97797.53
2022-10-02T04:44:46.985Z,97812.53
2022-10-02T04:47:43.306Z,97818.25
2022-10-02T04:50:44.352Z,97811.09
2022-10-02T04:54:04.419Z,97821.31
2022-10-02T04:56:54.335Z,97824.19
2022-10-02T04:59:50.137Z,97815.38
2022-10-02T05:02:44.151Z,97823.22
2022-10-02T05:05:33.047Z,97837.28
2022-10-02T05:08:34.470Z,97836.19
2022-10-02T05:11:32.522Z,97841.44
2022-10-02T05:14:30.182Z,97853.69
2022-10-02T05:17:35.836Z,97844.88
2022-10-02T05:20:20.786Z,97854.44
2022-10-02T05:23:02.885Z,97856.91
2022-10-02T05:25:57.476Z,97851.28
2022-10-02T05:28:45.999Z,97859.84
2022-10-02T05:31:34.542Z,97859.84
2022-10-02T05:34:29.326Z,97859.97
2022-10-02T05:37:41.953Z,97873.41
2022-10-02T05:40:34.037Z,97873.63
2022-10-02T05:43:24.368Z,97879.31
2022-10-02T05:46:22.800Z,97882.75
2022-10-02T05:48:57.808Z,97875.03
2022-10-02T05:51:59.358Z,97887.63
2022-10-02T05:54:54.150Z,97877.00
2022-10-02T05:57:27.110Z,97878.50
2022-10-02T06:00:41.032Z,97888.00
2022-10-02T06:03:36.137Z,97878.13
2022-10-02T06:06:26.753Z,97896.47
2022-10-02T06:09:02.840Z,97893.47
2022-10-02T06:11:40.562Z,97906.50
2022-10-02T06:14:47.321Z,97903.25
2022-10-02T06:18:02.943Z,97900.56
2022-10-02T06:20:46.615Z,97906.84
2022-10-02T06:23:17.194Z,97909.91
2022-10-02T06:26:40.161Z,97914.63
2022-10-02T06:29:26.901Z,97919.28
2022-10-02T06:32:25.068Z,97919.53
2022-10-02T06:34:52.554Z,97924.84
2022-10-02T06:37:40.304Z,97932.34
2022-10-02T06:41:16.732Z,97932.78
2022-10-02T06:44:23.251Z,97936.16
2022-10-02T06:47:05.073Z,97942.06
2022-10-02T06:49:57.971Z,97938.63
2022-10-02T06:52:53.480Z,97944.31
2022-10-02T06:56:19.237Z,97944.22
2022-10-02T06:58:57.226Z,97945.72
2022-10-02T07:01:56.422Z,97946.41
2022-10-02T07:05:06.087Z,97941.56
2022-10-02T07:07:52.474Z,97950.16
2022-10-02T07:10:55.407Z,97950.97
2022-10-02T07:13:44.551Z,97960.44
2022-10-02T07:16:18.183Z,97956.56
2022-10-02T07:19:02.332Z,97954.09
2022-10-02T07:21:47.278Z,97961.03
2022-10-02T07:24:35.886Z,97959.66
2022-10-02T07:27:21.062Z,97969.91
2022-10-02T07:30:10.836Z,97965.75
2022-10-02T07:33:03.722Z,97971.31
2022-10-02T07:35:43.886Z,97970.75
2022-10-02T07:38:22.953Z,97971.00
2022-10-02T07:41:07.052Z,97969.13
2022-10-02T07:43:58.677Z,97973.09
2022-10-02T07:47:00.388Z,97976.56
2022-10-02T07:49:56.125Z,97970.88
2022-10-02T07:52:36.641Z,97976.41
2022-10-02T07:55:16.376Z,97976.81
2022-10-02T07:58:10.114Z,97975.16
2022-10-02T08:00:47.712Z,97970.00
2022-10-02T08:03:24.404Z,97967.47
2022-10-02T08:05:55.706Z,97975.38
2022-10-02T08:08:32.172Z,97962.25
2022-10-02T08:11:37.261Z,97963.69
2022-10-02T08:14:32.161Z,97958.09
2022-10-02T08:17:19.686Z,97950.16
2022-10-02T08:19:52.432Z,97952.25
2022-10-02T08:22:39.381Z,97961.19
2022-10-02T08:25:36.871Z,97949.19
2022-10-02T08:29:01.348Z,97950.19
2022-10-02T08:31:29.796Z,97932.88
2022-10-02T08:33:57.715Z,97954.41
2022-10-02T08:36:46.031Z,97934.41
2022-10-02T08:39:31.053Z,97942.66
2022-10-02T08:42:17.198Z,97955.28
2022-10-02T08:45:15.453Z,97956.81
2022-10-02T08:47:48.627Z,97960.84
2022-10-02T08:51:06.219Z,97944.66
2022-10-02T08:54:19.309Z,97958.09
2022-10-02T08:57:46.099Z,97955.53
2022-10-02T09:00:40.108Z,97960.75
2022-10-02T09:03:45.893Z,97943.69
2022-10-02T09:06:52.189Z,97929.94
2022-10-02T09:09:45.982Z,97942.28
2022-10-02T09:12:25.175Z,97939.81
2022-10-02T09:15:03.217Z,97914.28
2022-10-02T09:17:47.646Z,97927.59
2022-10-02T09:21:13.125Z,97921.22
2022-10-02T09:24:01.005Z,97946.22
2022-10-02T09:26:36.852Z,97924.06
2022-10-02T09:29:52.104Z,97922.69
2022-10-02T09:32:34.983Z,97923.78
2022-10-02T09:35:46.743Z,97908.09
2022-10-02T09:38:45.115Z,97921.34
2022-10-02T09:41:49.667Z,97918.84
2022-10-02T09:45:01.787Z,97898.19
2022-10-02T09:48:19.727Z,97898.28
2022-10-02T09:51:41.853Z,97882.88
2022-10-02T09:54:57.174Z,97888.03
2022-10-02T09:57:31.892Z,97892.28
2022-10-02T10:00:49.633Z,97894.66
2022-10-02T10:03:38.335Z,97875.31
2022-10-02T10:06:17.677Z,97895.06
2022-10-02T10:09:11.840Z,97884.72
2022-10-02T10:12:02.001Z,97882.50
2022-10-02T10:15:09.450Z,97877.91
2022-10-02T10:18:10.520Z,97886.00
2022-10-02T10:21:30.440Z,97879.75
2022-10-02T10:24:26.784Z,97868.28
2022-10-02T10:27:13.459Z,97871.25
2022-10-02T10:30:17.639Z,97857.25
2022-10-02T10:33:42.204Z,97867.19
2022-10-02T10:36:59.363Z,97856.50
2022-10-02T10:40:37.200Z,97870.50
2022-10-02T10:43:29.121Z,97856.84
2022-10-02T10:46:46.153Z,97870.81
2022-10-02T10:49:47.717Z,97860.16
2022-10-02T10:52:25.267Z,97863.31
2022-10-02T10:55:07.996Z,97846.41
2022-10-02T10:58:00.217Z,97846.19
2022-10-02T11:00:53.619Z,97855.63
2022-10-02T11:03:45.001Z,97850.72
2022-10-02T11:07:08.084Z,97841.03
2022-10-02T11:10:20.769Z,97844.78
2022-10-02T11:13:21.552Z,97848.66
2022-10-02T11:16:52.442Z,97854.66
2022-10-02T11:19:29.961Z,97856.69
2022-10-02T11:22:10.456Z,97860.63
2022-10-02T11:25:21.654Z,97847.47
2022-10-02T11:28:46.972Z,97853.25
2022-10-02T11:31:47.865Z,97861.63
2022-10-02T11:34:47.609Z,97841.00
2022-10-02T11:37:59.602Z,97842.72
2022-10-02T11:41:07.726Z,97843.78
2022-10-02T11:44:05.637Z,97851.44
2022-10-02T11:47:19.677Z,97838.63
2022-10-02T11:50:23.526Z,97855.13
2022-10-02T11:53:02.811Z,97832.63
2022-10-02T11:55:52.971Z,97841.09
2022-10-02T11:58:45.195Z,97841.31
2022-10-02T12:01:42.231Z,97839.28
2022-10-02T12:04:18.749Z,97829.34
2022-10-02T12:07:10.745Z,97822.38
2022-10-02T12:10:15.663Z,97820.47
2022-10-02T12:13:16.070Z,97808.13
2022-10-02T12:16:07.920Z,97810.88
2022-10-02T12:18:41.096Z,97795.16
2022-10-02T12:21:41.663Z,97815.94
2022-10-02T12:24:46.026Z,97809.19
2022-10-02T12:28:11.907Z,97804.13
2022-10-02T12:31:30.063Z,97810.22
2022-10-02T12:34:25.477Z,97802.16
2022-10-02T12:37:06.241Z,97792.97
2022-10-02T12:39:52.744Z,97807.25
2022-10-02T12:43:10.488Z,97787.94
2022-10-02T12:46:19.112Z,97792.63
2022-10-02T12:49:34.283Z,97800.22
2022-10-02T12:52:40.047Z,97785.16
2022-10-02T12:55:27.435Z,97771.59
2022-10-02T12:58:24.907Z,97772.78
2022-10-02T13:01:32.042Z,97778.50
2022-10-02T13:04:38.112Z,97772.06
2022-10-02T13:07:41.920Z,97764.59
2022-10-02T13:10:24.906Z,97752.06
2022-10-02T13:13:25.111Z,97751.75
2022-10-02T13:16:46.671Z,97755.78
2022-10-02T13:20:10.787Z,97750.00
2022-10-02T13:23:10.289Z,97743.25
2022-10-02T13:26:00.325Z,97729.25
2022-10-02T13:28:40.521Z,97730.59
2022-10-02T13:31:29.143Z,97729.09
2022-10-02T13:34:06.936Z,97721.06
2022-10-02T13:37:10.876Z,97715.94
2022-10-02T13:40:35.512Z,97709.78
2022-10-02T13:43:21.444Z,97715.00
2022-10-02T13:46:43.081Z,97719.56
2022-10-02T13:49:38.491Z,97718.63
2022-10-02T13:52:35.722Z,97717.63
2022-10-02T13:55:17.608Z,97702.84
2022-10-02T13:58:37.744Z,97705.81
2022-10-02T14:01:26.848Z,97701.09
2022-10-02T14:04:41.655Z,97711.16
2022-10-02T14:07:27.251Z,97700.63
2022-10-02T14:10:35.032Z,97706.13
2022-10-02T14:13:31.655Z,97715.13
2022-10-02T14:16:11.039Z,97686.44
2022-10-02T14:19:23.691Z,97691.81
2022-10-02T14:23:03.705Z,97680.47
2022-10-02T14:25:46.579Z,97682.34
2022-10-02T14:28:54.984Z,97676.16
2022-10-02T14:32:00.117Z,97670.84
2022-10-02T14:35:03.239Z,97676.38
2022-10-02T14:37:57.548Z,97676.59
2022-10-02T14:40:42.829Z,97668.22
2022-10-02T14:43:37.279Z,97679.75
2022-10-02T14:46:10.340Z,97679.56
2022-10-02T14:49:02.081Z,97688.50
2022-10-02T14:52:35.282Z,97677.63
2022-10-02T14:55:44.274Z,97685.13
2022-10-02T14:58:42.883Z,97673.50
2022-10-02T15:01:23.933Z,97685.19
2022-10-02T15:04:24.089Z,97689.03
2022-10-02T15:07:26.125Z,97692.41
2022-10-02T15:10:34.012Z,97692.03
2022-10-02T15:13:19.201Z,97682.25
2022-10-02T15:16:38.663Z,97683.56
2022-10-02T15:19:20.704Z,97685.19
2022-10-02T15:22:28.471Z,97702.44
2022-10-02T15:25:18.076Z,97720.38
2022-10-02T15:28:35.881Z,97712.03
2022-10-02T15:31:31.341Z,97725.63
2022-10-02T15:34:42.463Z,97712.75
2022-10-02T15:37:32.868Z,97714.50
2022-10-02T15:40:08.946Z,97697.47
2022-10-02T15:42:52.451Z,97692.03
2022-10-02T15:46:08.291Z,97702.22
2022-10-02T15:49:06.609Z,97685.16
2022-10-02T15:52:00.321Z,97694.19
2022-10-02T15:54:51.943Z,97705.78
2022-10-02T15:57:49.538Z,97703.34
2022-10-02T16:00:22.092Z,97703.22
2022-10-02T16:03:31.802Z,97697.78
2022-10-02T16:06:36.440Z,97700.09
2022-10-02T16:09:26.816Z,97701.91
2022-10-02T16:11:58.455Z,97693.97
2022-10-02T16:15:10.361Z,97694.25
2022-10-02T16:18:01.661Z,97699.38
2022-10-02T16:21:13.603Z,97696.06
2022-10-02T16:24:08.272Z,97688.78
2022-10-02T16:27:09.693Z,97685.09
2022-10-02T16:30:15.326Z,97687.53
2022-10-02T16:33:13.205Z,97690.16
2022-10-02T16:35:58.623Z,97695.53
2022-10-02T16:39:13.224Z,97690.16
2022-10-02T16:42:02.232Z,97676.94
2022-10-02T16:45:13.841Z,97689.47
2022-10-02T16:48:09.784Z,97691.91
2022-10-02T16:51:02.650Z,97695.97
2022-10-02T16:53:40.170Z,97689.47
2022-10-02T16:56:17.457Z,97693.63
2022-10-02T16:59:22.230Z,97693.56
2022-10-02T17:02:18.010Z,97683.47
2022-10-02T17:05:06.847Z,97686.91
2022-10-02T17:08:31.139Z,97683.63
2022-10-02T17:11:57.608Z,97672.03
2022-10-02T17:15:14.486Z,97675.84
2022-10-02T17:18:11.524Z,97668.19
2022-10-02T17:20:54.663Z,97669.44
2022-10-02T17:23:39.969Z,97679.59
2022-10-02T17:27:12.756Z,97674.53
2022-10-02T17:30:04.215Z,97670.63
2022-10-02T17:32:51.243Z,97671.22
2022-10-02T17:35:57.381Z,97669.03
2022-10-02T17:39:21.451Z,97667.50
2022-10-02T17:42:11.723Z,97666.16
2022-10-02T17:45:26.397Z,97667.16
2022-10-02T17:48:08.230Z,97664.94
2022-10-02T17:50:45.444Z,97658.88
2022-10-02T17:53:37.053Z,97661.66
2022-10-02T17:56:32.438Z,97660.19
2022-10-02T17:59:25.803Z,97662.56
2022-10-02T18:02:14.392Z,97660.09
2022-10-02T18:05:34.331Z,97660.53
2022-10-02T18:08:36.674Z,97660.88
2022-10-02T18:11:49.929Z,97676.81
2022-10-02T18:14:42.101Z,97710.38
2022-10-02T18:17:41.468Z,97763.69
2022-10-02T18:20:36.582Z,97743.50
2022-10-02T18:23:37.879Z,97736.03
2022-10-02T18:26:23.351Z,97739.84
2022-10-02T18:29:21.237Z,97733.47
2022-10-02T18:31:56.590Z,97731.78
2022-10-02T18:34:54.635Z,97729.69
2022-10-02T18:37:50.316Z,97724.84
2022-10-02T18:40:34.168Z,97734.84
2022-10-02T18:43:11.166Z,97733.47
2022-10-02T18:46:27.496Z,97735.19
2022-10-02T18:49:12.578Z,97730.06
2022-10-02T18:51:45.813Z,97729.72
2022-10-02T18:54:37.589Z,97730.59
2022-10-02T18:57:07.821Z,97728.47
2022-10-02T19:00:15.843Z,97735.31
2022-10-02T19:03:51.571Z,97727.56
2022-10-02T19:07:03.118Z,97728.78
2022-10-02T19:09:31.490Z,97733.72
2022-10-02T19:12:13.445Z,97743.25
2022-10-02T19:14:46.401Z,97742.78
2022-10-02T19:17:21.977Z,97746.22
2022-10-02T19:19:49.153Z,97748.28
2022-10-02T19:22:24.522Z,97754.22
2022-10-02T19:25:05.638Z,97752.81
2022-10-02T19:27:37.639Z,97750.19
2022-10-02T19:30:22.070Z,97755.50
2022-10-02T19:32:51.659Z,97752.63
2022-10-02T19:35:32.417Z,97748.59
2022-10-02T19:38:33.391Z,97754.22
2022-10-02T19:41:09.867Z,97748.84
2022-10-02T19:43:58.419Z,97752.16
2022-10-02T19:46:48.503Z,97751.47
2022-10-02T19:49:32.463Z,97747.97
2022-10-02T19:51:59.821Z,97755.41
2022-10-02T19:54:37.959Z,97760.78
2022-10-02T19:57:16.497Z,97759.41
2022-10-02T19:59:54.245Z,97754.69
2022-10-02T20:02:36.532Z,97751.59
2022-10-02T20:05:11.715Z,97753.44
2022-10-02T20:07:40.329Z,97757.13
2022-10-02T20:11:16.253Z,97766.91
2022-10-02T20:14:03.714Z,97758.59
2022-10-02T20:16:49.990Z,97762.03
2022-10-02T20:19:23.890Z,97771.22
2022-10-02T20:22:26.188Z,97772.53
2022-10-02T20:25:18.351Z,97780.28
2022-10-02T20:27:56.666Z,97786.22
2022-10-02T20:30:35.866Z,97797.53
2022-10-02T20:33:35.723Z,97803.84
2022-10-02T20:36:17.176Z,97807.28
2022-10-02T20:39:05.353Z,97796.00
2022-10-02T20:41:57.667Z,97794.41
2022-10-02T20:44:29.352Z,97790.25
2022-10-02T20:48:06.184Z,97790.50
2022-10-02T20:51:01.916Z,97778.72
2022-10-02T20:54:25.434Z,97788.00
2022-10-02T20:57:56.250Z,97791.69
2022-10-02T21:00:28.987Z,97780.75
2022-10-02T21:03:21.194Z,97789.41
2022-10-02T21:06:11.334Z,97786.69
2022-10-02T21:09:22.580Z,97795.47
2022-10-02T21:12:37.130Z,97785.97
2022-10-02T21:15:39.714Z,97778.84
2022-10-02T21:18:15.869Z,97785.72
2022-10-02T21:21:15.681Z,97781.69
2022-10-02T21:24:06.939Z,97791.44
2022-10-02T21:27:12.933Z,97802.38
2022-10-02T21:30:18.862Z,97800.72
2022-10-02T21:33:19.516Z,97799.41
2022-10-02T21:36:06.858Z,97794.88
2022-10-02T21:39:16.869Z,97795.84
2022-10-02T21:42:31.959Z,97801.78
2022-10-02T21:45:23.904Z,97804.41
2022-10-02T21:48:04.787Z,97803.25
2022-10-02T21:51:19.695Z,97811.91
2022-10-02T21:54:27.750Z,97810.00
2022-10-02T21:57:19.097Z,97809.41
2022-10-02T22:00:14.077Z,97816.66
2022-10-02T22:03:35.886Z,97808.47
2022-10-02T22:06:21.603Z,97807.38
2022-10-02T22:08:57.663Z,97814.03
2022-10-02T22:11:50.888Z,97811.66
2022-10-02T22:14:34.861Z,97815.50
2022-10-02T22:17:25.288Z,97814.06
2022-10-02T22:20:24.670Z,97817.22
2022-10-02T22:23:33.010Z,97818.06
2022-10-02T22:26:25.370Z,97819.00
2022-10-02T22:29:25.695Z,97813.31
2022-10-02T22:32:39.490Z,97821.38
2022-10-02T22:35:49.242Z,97806.19
2022-10-02T22:38:39.530Z,97811.53
2022-10-02T22:41:29.318Z,97817.59
2022-10-02T22:44:23.055Z,97822.22
2022-10-02T22:47:09.075Z,97825.19
2022-10-02T22:50:03.711Z,97826.84
2022-10-02T22:52:42.912Z,97833.84
2022-10-02T22:55:46.558Z,97824.69
2022-10-02T22:58:30.454Z,97834.53
2022-10-02T23:01:29.742Z,97832.03
2022-10-02T23:04:09.001Z,97839.59
2022-10-02T23:06:54.974Z,97838.69
2022-10-02T23:09:38.365Z,97836.28
2022-10-02T23:12:23.311Z,97834.03
2022-10-02T23:15:44.827Z,97835.44
2022-10-02T23:18:16.543Z,97851.00
2022-10-02T23:20:53.316Z,97844.94
2022-10-02T23:23:33.691Z,97846.88
2022-10-02T23:26:33.586Z,97849.59
2022-10-02T23:29:27.422Z,97847.63
2022-10-02T23:32:35.683Z,97856.34
2022-10-02T23:35:13.963Z,97850.28
2022-10-02T23:38:05.032Z,97848.97
2022-10-02T23:41:17.580Z,97859.09
2022-10-02T23:44:10.528Z,97867.63
2022-10-02T23:47:01.830Z,97866.91
2022-10-02T23:50:24.336Z,97864.31
2022-10-02T23:53:12.872Z,97862.91
2022-10-02T23:56:17.278Z,97865.97
2022-10-02T23:59:15.067Z,97863.59
